NC74 weather

Public forecast

Using degrees Fahrenheit for public forecast. Weather courtesy of forecast.io.

Closest aviation weather report (METAR) to Randolph Hospital Heliport

Closest report is Asheboro Regional Airport, 5.1 nm (9.5 km) SW. Retrieved 2020/08/09 09:15 UTC (0 seconds ago):

KHBI 090915Z AUTO 00000KT 22/22 A3016 RMK AO2 T02200217 PWINO

Closest aviation forecast (TAF) to Randolph Hospital Heliport

Closest forecast is Piedmont Triad International Airport, 24.0 nm (44.4 km) NNW. Retrieved 2020/08/09 06:33 UTC (3 hours ago):

TAF KGSO 090531Z 0906/1006 00000KT P6SM SCT250 TEMPO 0909/0913 2SM BR SCT003 FM091300 VRB03KT P6SM SCT015 FM091800 22003KT P6SM SCT040